sensor_id;sensor_type;location;lat;lon;timestamp;pressure;altitude;pressure_sealevel;temperature;humidity
20620;BME280;10469;42.720;23.252;2023-02-04T00:01:05;94709.25;;;0.36;100.00
20620;BME280;10469;42.720;23.252;2023-02-04T00:03:31;94715.53;;;0.35;100.00
20620;BME280;10469;42.720;23.252;2023-02-04T00:05:56;94708.97;;;0.31;100.00
20620;BME280;10469;42.720;23.252;2023-02-04T00:08:22;94681.91;;;0.14;100.00
20620;BME280;10469;42.720;23.252;2023-02-04T00:10:48;94684.50;;;0.22;100.00
20620;BME280;10469;42.720;23.252;2023-02-04T00:13:13;94699.41;;;0.30;100.00
20620;BME280;10469;42.720;23.252;2023-02-04T00:15:39;94697.50;;;0.23;100.00
20620;BME280;10469;42.720;23.252;2023-02-04T00:18:04;94700.47;;;0.20;100.00
20620;BME280;10469;42.720;23.252;2023-02-04T00:20:32;94696.19;;;0.19;100.00
20620;BME280;10469;42.720;23.252;2023-02-04T00:22:57;94695.25;;;0.12;100.00
20620;BME280;10469;42.720;23.252;2023-02-04T00:25:23;94693.38;;;0.21;100.00
20620;BME280;10469;42.720;23.252;2023-02-04T00:27:48;94685.63;;;0.05;100.00
20620;BME280;10469;42.720;23.252;2023-02-04T00:30:14;94680.16;;;0.06;100.00
20620;BME280;10469;42.720;23.252;2023-02-04T00:32:39;94671.25;;;0.07;100.00
20620;BME280;10469;42.720;23.252;2023-02-04T00:35:05;94676.88;;;0.04;100.00
20620;BME280;10469;42.720;23.252;2023-02-04T00:37:31;94676.88;;;0.04;100.00
20620;BME280;10469;42.720;23.252;2023-02-04T00:39:56;94685.09;;;0.09;100.00
20620;BME280;10469;42.720;23.252;2023-02-04T00:42:22;94680.19;;;0.21;100.00
20620;BME280;10469;42.720;23.252;2023-02-04T00:44:47;94669.84;;;0.19;100.00
20620;BME280;10469;42.720;23.252;2023-02-04T00:47:13;94670.38;;;0.30;100.00
20620;BME280;10469;42.720;23.252;2023-02-04T00:49:38;94667.31;;;0.26;100.00
20620;BME280;10469;42.720;23.252;2023-02-04T00:52:04;94635.19;;;0.22;100.00
20620;BME280;10469;42.720;23.252;2023-02-04T00:54:29;94664.34;;;0.44;100.00
20620;BME280;10469;42.720;23.252;2023-02-04T00:56:55;94661.97;;;0.49;100.00
20620;BME280;10469;42.720;23.252;2023-02-04T00:59:20;94646.78;;;0.51;100.00
20620;BME280;10469;42.720;23.252;2023-02-04T01:01:46;94642.44;;;0.58;100.00
20620;BME280;10469;42.720;23.252;2023-02-04T01:04:11;94647.44;;;0.68;100.00
20620;BME280;10469;42.720;23.252;2023-02-04T01:06:37;94629.78;;;0.68;100.00
20620;BME280;10469;42.720;23.252;2023-02-04T01:09:03;94624.13;;;0.86;100.00
20620;BME280;10469;42.720;23.252;2023-02-04T01:11:29;94621.78;;;0.91;100.00
20620;BME280;10469;42.720;23.252;2023-02-04T01:13:55;94625.78;;;0.87;100.00
20620;BME280;10469;42.720;23.252;2023-02-04T01:16:21;94625.88;;;1.09;100.00
20620;BME280;10469;42.720;23.252;2023-02-04T01:18:46;94599.34;;;1.17;100.00
20620;BME280;10469;42.720;23.252;2023-02-04T01:21:12;94608.19;;;1.45;100.00
20620;BME280;10469;42.720;23.252;2023-02-04T01:23:38;94593.41;;;1.72;100.00
20620;BME280;10469;42.720;23.252;2023-02-04T01:26:03;94588.28;;;2.14;100.00
20620;BME280;10469;42.720;23.252;2023-02-04T01:28:29;94580.91;;;2.37;100.00
20620;BME280;10469;42.720;23.252;2023-02-04T01:30:54;94576.19;;;2.61;100.00
20620;BME280;10469;42.720;23.252;2023-02-04T01:33:20;94558.13;;;2.71;100.00
20620;BME280;10469;42.720;23.252;2023-02-04T01:35:45;94558.41;;;2.83;100.00
20620;BME280;10469;42.720;23.252;2023-02-04T01:38:11;94560.72;;;2.99;100.00
20620;BME280;10469;42.720;23.252;2023-02-04T01:40:36;94557.25;;;2.98;100.00
20620;BME280;10469;42.720;23.252;2023-02-04T01:43:02;94554.44;;;3.13;100.00
20620;BME280;10469;42.720;23.252;2023-02-04T01:45:28;94552.19;;;3.10;100.00
20620;BME280;10469;42.720;23.252;2023-02-04T01:47:55;94548.72;;;3.10;100.00
20620;BME280;10469;42.720;23.252;2023-02-04T01:50:20;94535.69;;;3.08;100.00
20620;BME280;10469;42.720;23.252;2023-02-04T01:52:46;94541.41;;;3.12;100.00
20620;BME280;10469;42.720;23.252;2023-02-04T01:55:18;94527.75;;;3.15;100.00
20620;BME280;10469;42.720;23.252;2023-02-04T01:57:44;94526.53;;;3.17;100.00
20620;BME280;10469;42.720;23.252;2023-02-04T02:00:20;94536.34;;;3.23;100.00
20620;BME280;10469;42.720;23.252;2023-02-04T02:02:50;94531.03;;;3.23;100.00
20620;BME280;10469;42.720;23.252;2023-02-04T02:05:43;94527.22;;;3.33;100.00
20620;BME280;10469;42.720;23.252;2023-02-04T02:08:10;94533.31;;;3.33;100.00
20620;BME280;10469;42.720;23.252;2023-02-04T02:10:36;94515.97;;;3.31;100.00
20620;BME280;10469;42.720;23.252;2023-02-04T02:13:04;94514.94;;;3.32;100.00
20620;BME280;10469;42.720;23.252;2023-02-04T02:15:30;94516.78;;;3.24;100.00
20620;BME280;10469;42.720;23.252;2023-02-04T02:17:56;94527.44;;;2.83;100.00
20620;BME280;10469;42.720;23.252;2023-02-04T02:20:23;94527.41;;;2.76;100.00
20620;BME280;10469;42.720;23.252;2023-02-04T02:25:45;94500.34;;;2.88;100.00
20620;BME280;10469;42.720;23.252;2023-02-04T02:28:14;94482.91;;;3.13;100.00
20620;BME280;10469;42.720;23.252;2023-02-04T02:30:42;94470.31;;;3.22;100.00
20620;BME280;10469;42.720;23.252;2023-02-04T02:33:10;94466.03;;;3.34;100.00
20620;BME280;10469;42.720;23.252;2023-02-04T02:35:36;94468.47;;;3.36;100.00
20620;BME280;10469;42.720;23.252;2023-02-04T02:38:01;94450.34;;;3.39;100.00
20620;BME280;10469;42.720;23.252;2023-02-04T02:40:27;94429.53;;;3.23;100.00
20620;BME280;10469;42.720;23.252;2023-02-04T02:42:53;94450.16;;;3.34;100.00
20620;BME280;10469;42.720;23.252;2023-02-04T02:45:25;94446.88;;;3.32;100.00
20620;BME280;10469;42.720;23.252;2023-02-04T02:47:51;94437.88;;;3.13;100.00
20620;BME280;10469;42.720;23.252;2023-02-04T02:50:20;94440.31;;;3.15;100.00
20620;BME280;10469;42.720;23.252;2023-02-04T02:52:47;94444.19;;;3.12;100.00
20620;BME280;10469;42.720;23.252;2023-02-04T02:55:17;94423.00;;;3.32;100.00
20620;BME280;10469;42.720;23.252;2023-02-04T02:57:45;94427.72;;;3.43;100.00
20620;BME280;10469;42.720;23.252;2023-02-04T03:00:18;94433.84;;;3.44;100.00
20620;BME280;10469;42.720;23.252;2023-02-04T03:02:47;94425.06;;;3.43;100.00
20620;BME280;10469;42.720;23.252;2023-02-04T03:05:14;94411.00;;;3.36;100.00
20620;BME280;10469;42.720;23.252;2023-02-04T03:07:39;94407.13;;;3.52;100.00
20620;BME280;10469;42.720;23.252;2023-02-04T03:10:05;94426.28;;;3.61;100.00
20620;BME280;10469;42.720;23.252;2023-02-04T03:12:31;94437.50;;;3.69;100.00
20620;BME280;10469;42.720;23.252;2023-02-04T03:14:56;94419.97;;;3.48;100.00
20620;BME280;10469;42.720;23.252;2023-02-04T03:17:22;94425.69;;;3.72;100.00
20620;BME280;10469;42.720;23.252;2023-02-04T03:19:48;94411.63;;;3.71;100.00
20620;BME280;10469;42.720;23.252;2023-02-04T03:22:13;94398.97;;;3.80;100.00
20620;BME280;10469;42.720;23.252;2023-02-04T03:24:40;94422.81;;;3.87;100.00
20620;BME280;10469;42.720;23.252;2023-02-04T03:27:06;94419.56;;;3.85;100.00
20620;BME280;10469;42.720;23.252;2023-02-04T03:29:31;94413.00;;;3.87;100.00
20620;BME280;10469;42.720;23.252;2023-02-04T03:31:57;94427.50;;;3.85;100.00
20620;BME280;10469;42.720;23.252;2023-02-04T03:34:24;94433.44;;;3.80;100.00
20620;BME280;10469;42.720;23.252;2023-02-04T03:36:49;94428.94;;;3.81;100.00
20620;BME280;10469;42.720;23.252;2023-02-04T03:39:15;94418.97;;;3.43;100.00
20620;BME280;10469;42.720;23.252;2023-02-04T03:41:40;94409.66;;;2.59;100.00
20620;BME280;10469;42.720;23.252;2023-02-04T03:44:06;94419.53;;;1.96;100.00
20620;BME280;10469;42.720;23.252;2023-02-04T03:46:31;94416.31;;;1.72;100.00
20620;BME280;10469;42.720;23.252;2023-02-04T03:48:56;94423.44;;;1.72;100.00
20620;BME280;10469;42.720;23.252;2023-02-04T03:51:22;94420.22;;;1.76;100.00
20620;BME280;10469;42.720;23.252;2023-02-04T03:53:47;94385.69;;;1.85;100.00
20620;BME280;10469;42.720;23.252;2023-02-04T03:56:13;94402.34;;;2.20;100.00
20620;BME280;10469;42.720;23.252;2023-02-04T03:58:38;94400.19;;;2.37;100.00
20620;BME280;10469;42.720;23.252;2023-02-04T04:01:04;94384.34;;;2.43;100.00
20620;BME280;10469;42.720;23.252;2023-02-04T04:03:29;94373.75;;;2.43;100.00
20620;BME280;10469;42.720;23.252;2023-02-04T04:05:55;94376.84;;;2.47;100.00
20620;BME280;10469;42.720;23.252;2023-02-04T04:08:20;94372.00;;;2.64;100.00
20620;BME280;10469;42.720;23.252;2023-02-04T04:10:45;94371.00;;;2.85;100.00
20620;BME280;10469;42.720;23.252;2023-02-04T04:13:12;94370.22;;;3.17;100.00
20620;BME280;10469;42.720;23.252;2023-02-04T04:15:37;94359.63;;;3.17;100.00
20620;BME280;10469;42.720;23.252;2023-02-04T04:18:03;94364.09;;;3.37;100.00
20620;BME280;10469;42.720;23.252;2023-02-04T04:20:29;94356.16;;;3.37;100.00
20620;BME280;10469;42.720;23.252;2023-02-04T04:22:54;94347.00;;;3.46;100.00
20620;BME280;10469;42.720;23.252;2023-02-04T04:25:20;94362.66;;;3.61;100.00
20620;BME280;10469;42.720;23.252;2023-02-04T04:27:45;94359.81;;;3.56;100.00
20620;BME280;10469;42.720;23.252;2023-02-04T04:30:11;94379.00;;;3.64;100.00
20620;BME280;10469;42.720;23.252;2023-02-04T04:32:36;94369.59;;;3.62;100.00
20620;BME280;10469;42.720;23.252;2023-02-04T04:35:02;94380.00;;;3.63;100.00
20620;BME280;10469;42.720;23.252;2023-02-04T04:37:28;94372.25;;;3.62;100.00
20620;BME280;10469;42.720;23.252;2023-02-04T04:39:53;94372.44;;;3.73;100.00
20620;BME280;10469;42.720;23.252;2023-02-04T04:42:18;94371.00;;;3.71;100.00
20620;BME280;10469;42.720;23.252;2023-02-04T04:44:44;94380.38;;;3.87;100.00
20620;BME280;10469;42.720;23.252;2023-02-04T04:47:09;94374.25;;;3.86;100.00
20620;BME280;10469;42.720;23.252;2023-02-04T04:49:35;94381.59;;;3.84;100.00
20620;BME280;10469;42.720;23.252;2023-02-04T04:52:00;94383.88;;;3.81;100.00
20620;BME280;10469;42.720;23.252;2023-02-04T04:54:25;94393.66;;;3.67;100.00
20620;BME280;10469;42.720;23.252;2023-02-04T04:56:51;94385.47;;;3.75;100.00
20620;BME280;10469;42.720;23.252;2023-02-04T04:59:16;94389.41;;;3.59;100.00
20620;BME280;10469;42.720;23.252;2023-02-04T05:01:42;94389.78;;;3.49;100.00
20620;BME280;10469;42.720;23.252;2023-02-04T05:04:07;94393.06;;;3.45;100.00
20620;BME280;10469;42.720;23.252;2023-02-04T05:06:32;94385.53;;;3.29;100.00
20620;BME280;10469;42.720;23.252;2023-02-04T05:08:58;94386.72;;;3.19;100.00
20620;BME280;10469;42.720;23.252;2023-02-04T05:11:23;94391.22;;;3.12;100.00
20620;BME280;10469;42.720;23.252;2023-02-04T05:13:49;94407.69;;;2.94;100.00
20620;BME280;10469;42.720;23.252;2023-02-04T05:16:14;94414.00;;;2.93;100.00
20620;BME280;10469;42.720;23.252;2023-02-04T05:18:41;94401.50;;;2.67;100.00
20620;BME280;10469;42.720;23.252;2023-02-04T05:21:07;94451.03;;;2.73;100.00
20620;BME280;10469;42.720;23.252;2023-02-04T05:23:32;94440.44;;;2.73;100.00
20620;BME280;10469;42.720;23.252;2023-02-04T05:25:58;94411.88;;;2.62;100.00
20620;BME280;10469;42.720;23.252;2023-02-04T05:28:23;94448.38;;;2.73;100.00
20620;BME280;10469;42.720;23.252;2023-02-04T05:30:49;94468.50;;;2.61;100.00
20620;BME280;10469;42.720;23.252;2023-02-04T05:33:14;94462.38;;;2.67;100.00
20620;BME280;10469;42.720;23.252;2023-02-04T05:35:40;94464.81;;;2.56;100.00
20620;BME280;10469;42.720;23.252;2023-02-04T05:38:05;94472.75;;;2.62;100.00
20620;BME280;10469;42.720;23.252;2023-02-04T05:40:31;94475.56;;;2.54;100.00
20620;BME280;10469;42.720;23.252;2023-02-04T05:42:56;94454.78;;;2.44;100.00
20620;BME280;10469;42.720;23.252;2023-02-04T05:45:21;94476.81;;;2.58;100.00
20620;BME280;10469;42.720;23.252;2023-02-04T05:47:47;94473.13;;;2.53;100.00
20620;BME280;10469;42.720;23.252;2023-02-04T05:50:13;94443.97;;;2.46;100.00
20620;BME280;10469;42.720;23.252;2023-02-04T05:52:39;94445.66;;;2.54;100.00
20620;BME280;10469;42.720;23.252;2023-02-04T05:55:05;94427.72;;;2.49;100.00
20620;BME280;10469;42.720;23.252;2023-02-04T05:57:30;94414.28;;;2.44;100.00
20620;BME280;10469;42.720;23.252;2023-02-04T05:59:56;94415.81;;;2.25;100.00
20620;BME280;10469;42.720;23.252;2023-02-04T06:02:21;94428.25;;;2.31;100.00
20620;BME280;10469;42.720;23.252;2023-02-04T06:04:47;94441.22;;;2.19;100.00
20620;BME280;10469;42.720;23.252;2023-02-04T06:07:12;94428.25;;;2.31;100.00
20620;BME280;10469;42.720;23.252;2023-02-04T06:09:38;94426.13;;;2.61;100.00
20620;BME280;10469;42.720;23.252;2023-02-04T06:12:03;94439.47;;;3.01;100.00
20620;BME280;10469;42.720;23.252;2023-02-04T06:14:29;94443.53;;;4.23;100.00
20620;BME280;10469;42.720;23.252;2023-02-04T06:16:54;94438.53;;;4.66;100.00
20620;BME280;10469;42.720;23.252;2023-02-04T06:19:20;94434.81;;;3.96;100.00
20620;BME280;10469;42.720;23.252;2023-02-04T06:21:45;94450.78;;;3.69;100.00
20620;BME280;10469;42.720;23.252;2023-02-04T06:37:35;94450.88;;;2.95;100.00
20620;BME280;10469;42.720;23.252;2023-02-04T06:40:00;94457.44;;;3.12;100.00
20620;BME280;10469;42.720;23.252;2023-02-04T06:42:26;94455.03;;;3.44;100.00
20620;BME280;10469;42.720;23.252;2023-02-04T06:44:52;94452.00;;;3.60;100.00
20620;BME280;10469;42.720;23.252;2023-02-04T06:47:18;94457.88;;;3.95;100.00
20620;BME280;10469;42.720;23.252;2023-02-04T06:49:44;94469.50;;;4.27;100.00
20620;BME280;10469;42.720;23.252;2023-02-04T06:52:10;94460.28;;;4.30;100.00
20620;BME280;10469;42.720;23.252;2023-02-04T06:54:36;94464.75;;;4.43;100.00
20620;BME280;10469;42.720;23.252;2023-02-04T06:57:02;94453.66;;;5.04;100.00
20620;BME280;10469;42.720;23.252;2023-02-04T06:59:38;94455.25;;;5.50;100.00
20620;BME280;10469;42.720;23.252;2023-02-04T07:02:07;94444.00;;;5.73;100.00
20620;BME280;10469;42.720;23.252;2023-02-04T07:04:35;94443.88;;;5.61;100.00
20620;BME280;10469;42.720;23.252;2023-02-04T07:07:00;94450.41;;;5.65;100.00
20620;BME280;10469;42.720;23.252;2023-02-04T07:09:26;94455.13;;;5.63;100.00
20620;BME280;10469;42.720;23.252;2023-02-04T07:11:51;94447.31;;;7.40;100.00
20620;BME280;10469;42.720;23.252;2023-02-04T07:14:19;94440.75;;;7.24;100.00
20620;BME280;10469;42.720;23.252;2023-02-04T07:16:45;94417.72;;;9.35;100.00
20620;BME280;10469;42.720;23.252;2023-02-04T07:19:10;94426.84;;;9.84;100.00
20620;BME280;10469;42.720;23.252;2023-02-04T07:21:35;94430.19;;;10.80;100.00
20620;BME280;10469;42.720;23.252;2023-02-04T07:24:01;94428.28;;;9.58;100.00
20620;BME280;10469;42.720;23.252;2023-02-04T07:26:27;94429.09;;;8.26;100.00
20620;BME280;10469;42.720;23.252;2023-02-04T07:28:53;94427.69;;;8.23;100.00
20620;BME280;10469;42.720;23.252;2023-02-04T07:31:18;94412.72;;;7.34;100.00
20620;BME280;10469;42.720;23.252;2023-02-04T07:33:43;94427.22;;;8.03;100.00
20620;BME280;10469;42.720;23.252;2023-02-04T07:36:09;94423.81;;;8.90;100.00
20620;BME280;10469;42.720;23.252;2023-02-04T07:38:34;94417.13;;;9.95;100.00
20620;BME280;10469;42.720;23.252;2023-02-04T07:41:00;94419.03;;;8.40;100.00
20620;BME280;10469;42.720;23.252;2023-02-04T07:43:25;94393.25;;;7.33;100.00
20620;BME280;10469;42.720;23.252;2023-02-04T07:45:51;94409.75;;;7.12;100.00
20620;BME280;10469;42.720;23.252;2023-02-04T07:48:16;94418.91;;;6.12;100.00
20620;BME280;10469;42.720;23.252;2023-02-04T07:50:41;94419.69;;;6.38;100.00
20620;BME280;10469;42.720;23.252;2023-02-04T07:53:07;94417.91;;;6.87;100.00
20620;BME280;10469;42.720;23.252;2023-02-04T07:55:33;94406.47;;;6.31;100.00
20620;BME280;10469;42.720;23.252;2023-02-04T07:57:58;94422.34;;;6.19;100.00
20620;BME280;10469;42.720;23.252;2023-02-04T08:00:24;94410.34;;;6.10;100.00
20620;BME280;10469;42.720;23.252;2023-02-04T08:02:49;94402.44;;;5.53;100.00
20620;BME280;10469;42.720;23.252;2023-02-04T08:05:15;94414.38;;;5.13;100.00
20620;BME280;10469;42.720;23.252;2023-02-04T08:07:40;94420.44;;;5.51;100.00
20620;BME280;10469;42.720;23.252;2023-02-04T08:10:07;94419.25;;;5.16;100.00
20620;BME280;10469;42.720;23.252;2023-02-04T08:12:33;94430.53;;;5.11;100.00
20620;BME280;10469;42.720;23.252;2023-02-04T08:14:59;94431.31;;;5.18;100.00
20620;BME280;10469;42.720;23.252;2023-02-04T08:17:25;94427.72;;;4.99;100.00
20620;BME280;10469;42.720;23.252;2023-02-04T08:19:51;94417.59;;;4.83;100.00
20620;BME280;10469;42.720;23.252;2023-02-04T08:22:16;94431.38;;;4.67;100.00
20620;BME280;10469;42.720;23.252;2023-02-04T08:24:42;94432.44;;;4.59;100.00
20620;BME280;10469;42.720;23.252;2023-02-04T08:27:07;94412.81;;;4.60;100.00
20620;BME280;10469;42.720;23.252;2023-02-04T08:29:33;94424.94;;;4.88;100.00
20620;BME280;10469;42.720;23.252;2023-02-04T08:31:59;94423.44;;;4.60;100.00
20620;BME280;10469;42.720;23.252;2023-02-04T08:34:25;94424.22;;;4.67;100.00
20620;BME280;10469;42.720;23.252;2023-02-04T08:36:50;94431.72;;;4.25;100.00
20620;BME280;10469;42.720;23.252;2023-02-04T08:39:15;94425.69;;;4.63;100.00
20620;BME280;10469;42.720;23.252;2023-02-04T08:41:41;94422.53;;;4.80;100.00
20620;BME280;10469;42.720;23.252;2023-02-04T08:44:06;94417.22;;;4.80;100.00
20620;BME280;10469;42.720;23.252;2023-02-04T08:46:33;94423.53;;;4.78;100.00
20620;BME280;10469;42.720;23.252;2023-02-04T08:48:59;94418.69;;;4.75;100.00
20620;BME280;10469;42.720;23.252;2023-02-04T08:51:24;94423.31;;;4.87;100.00
20620;BME280;10469;42.720;23.252;2023-02-04T08:53:49;94418.69;;;4.75;100.00
20620;BME280;10469;42.720;23.252;2023-02-04T08:56:15;94408.53;;;4.52;100.00
20620;BME280;10469;42.720;23.252;2023-02-04T08:58:43;94419.16;;;4.52;100.00
20620;BME280;10469;42.720;23.252;2023-02-04T09:01:10;94411.91;;;4.80;100.00
20620;BME280;10469;42.720;23.252;2023-02-04T09:03:36;94404.84;;;4.98;100.00
20620;BME280;10469;42.720;23.252;2023-02-04T09:06:02;94408.50;;;5.04;100.00
20620;BME280;10469;42.720;23.252;2023-02-04T09:08:28;94398.22;;;5.14;100.00
20620;BME280;10469;42.720;23.252;2023-02-04T09:10:53;94384.16;;;5.07;100.00
20620;BME280;10469;42.720;23.252;2023-02-04T09:13:18;94390.81;;;5.23;100.00
20620;BME280;10469;42.720;23.252;2023-02-04T09:15:44;94384.56;;;5.04;100.00
20620;BME280;10469;42.720;23.252;2023-02-04T09:18:09;94383.38;;;5.00;100.00
20620;BME280;10469;42.720;23.252;2023-02-04T09:20:43;94397.88;;;5.04;100.00
20620;BME280;10469;42.720;23.252;2023-02-04T09:23:09;94392.91;;;5.14;100.00
20620;BME280;10469;42.720;23.252;2023-02-04T09:25:40;94388.69;;;5.32;100.00
20620;BME280;10469;42.720;23.252;2023-02-04T09:28:06;94410.97;;;4.99;100.00
20620;BME280;10469;42.720;23.252;2023-02-04T09:30:34;94392.63;;;4.91;100.00
20620;BME280;10469;42.720;23.252;2023-02-04T09:33:00;94404.78;;;5.05;100.00
20620;BME280;10469;42.720;23.252;2023-02-04T09:35:25;94401.94;;;4.68;100.00
20620;BME280;10469;42.720;23.252;2023-02-04T09:37:51;94405.47;;;4.62;100.00
20620;BME280;10469;42.720;23.252;2023-02-04T09:40:17;94395.13;;;4.41;100.00
20620;BME280;10469;42.720;23.252;2023-02-04T09:42:48;94402.03;;;4.48;100.00
20620;BME280;10469;42.720;23.252;2023-02-04T09:45:17;94388.56;;;4.50;100.00
20620;BME280;10469;42.720;23.252;2023-02-04T09:47:44;94398.47;;;4.68;100.00
20620;BME280;10469;42.720;23.252;2023-02-04T09:50:14;94383.00;;;4.58;100.00
20620;BME280;10469;42.720;23.252;2023-02-04T09:52:41;94381.59;;;4.49;100.00
20620;BME280;10469;42.720;23.252;2023-02-04T09:55:19;94390.06;;;4.77;100.00
20620;BME280;10469;42.720;23.252;2023-02-04T09:57:46;94384.16;;;4.69;100.00
20620;BME280;10469;42.720;23.252;2023-02-04T10:00:18;94390.25;;;4.31;100.00
20620;BME280;10469;42.720;23.252;2023-02-04T10:02:44;94392.84;;;4.51;100.00
20620;BME280;10469;42.720;23.252;2023-02-04T10:05:39;94376.09;;;4.89;100.00
20620;BME280;10469;42.720;23.252;2023-02-04T10:08:04;94360.34;;;4.56;100.00
20620;BME280;10469;42.720;23.252;2023-02-04T10:10:30;94370.78;;;4.50;100.00
20620;BME280;10469;42.720;23.252;2023-02-04T10:12:59;94375.69;;;4.53;100.00
20620;BME280;10469;42.720;23.252;2023-02-04T10:15:25;94361.69;;;4.71;100.00
20620;BME280;10469;42.720;23.252;2023-02-04T10:17:54;94350.28;;;4.64;100.00
20620;BME280;10469;42.720;23.252;2023-02-04T10:20:23;94359.03;;;4.71;100.00
20620;BME280;10469;42.720;23.252;2023-02-04T10:22:52;94357.19;;;4.72;100.00
20620;BME280;10469;42.720;23.252;2023-02-04T10:25:21;94354.22;;;4.55;100.00
20620;BME280;10469;42.720;23.252;2023-02-04T10:27:49;94350.53;;;4.88;100.00
20620;BME280;10469;42.720;23.252;2023-02-04T10:30:20;94340.06;;;4.68;100.00
20620;BME280;10469;42.720;23.252;2023-02-04T10:32:46;94341.91;;;4.61;100.00
20620;BME280;10469;42.720;23.252;2023-02-04T10:35:14;94351.81;;;4.47;100.00
20620;BME280;10469;42.720;23.252;2023-02-04T10:37:40;94345.63;;;4.15;100.00
20620;BME280;10469;42.720;23.252;2023-02-04T10:40:28;94353.41;;;4.03;100.00
20620;BME280;10469;42.720;23.252;2023-02-04T10:42:54;94352.09;;;4.25;100.00
20620;BME280;10469;42.720;23.252;2023-02-04T10:45:27;94352.72;;;4.21;100.00
20620;BME280;10469;42.720;23.252;2023-02-04T10:47:54;94353.63;;;3.95;100.00
20620;BME280;10469;42.720;23.252;2023-02-04T10:50:25;94344.81;;;4.01;100.00
20620;BME280;10469;42.720;23.252;2023-02-04T10:52:54;94341.53;;;4.57;100.00
20620;BME280;10469;42.720;23.252;2023-02-04T10:55:40;94338.78;;;4.70;100.00
20620;BME280;10469;42.720;23.252;2023-02-04T10:58:09;94337.09;;;4.83;100.00
20620;BME280;10469;42.720;23.252;2023-02-04T11:00:36;94338.88;;;4.57;100.00
20620;BME280;10469;42.720;23.252;2023-02-04T11:05:42;94333.63;;;4.44;100.00
20620;BME280;10469;42.720;23.252;2023-02-04T11:08:22;94339.34;;;4.47;100.00
20620;BME280;10469;42.720;23.252;2023-02-04T11:10:50;94326.31;;;4.77;100.00
20620;BME280;10469;42.720;23.252;2023-02-04T11:13:39;94332.22;;;4.41;100.00
20620;BME280;10469;42.720;23.252;2023-02-04T11:21:23;94316.94;;;5.00;100.00
20620;BME280;10469;42.720;23.252;2023-02-04T11:23:50;94318.63;;;4.94;100.00
20620;BME280;10469;42.720;23.252;2023-02-04T11:26:35;94309.78;;;4.75;100.00
20620;BME280;10469;42.720;23.252;2023-02-04T11:37:01;94321.72;;;4.60;100.00
20620;BME280;10469;42.720;23.252;2023-02-04T11:39:38;94317.78;;;4.69;100.00
20620;BME280;10469;42.720;23.252;2023-02-04T11:42:23;94317.38;;;4.65;100.00
20620;BME280;10469;42.720;23.252;2023-02-04T11:45:00;94319.97;;;4.78;100.00
20620;BME280;10469;42.720;23.252;2023-02-04T11:47:33;94331.22;;;4.74;100.00
20620;BME280;10469;42.720;23.252;2023-02-04T11:50:03;94311.88;;;4.92;100.00
20620;BME280;10469;42.720;23.252;2023-02-04T11:52:35;94316.91;;;5.07;100.00
20620;BME280;10469;42.720;23.252;2023-02-04T11:55:00;94307.31;;;5.31;100.00
20620;BME280;10469;42.720;23.252;2023-02-04T11:57:27;94316.53;;;5.03;100.00
20620;BME280;10469;42.720;23.252;2023-02-04T11:59:53;94313.34;;;4.63;100.00
20620;BME280;10469;42.720;23.252;2023-02-04T12:02:24;94314.00;;;4.83;100.00
20620;BME280;10469;42.720;23.252;2023-02-04T12:07:23;94314.13;;;4.63;100.00
20620;BME280;10469;42.720;23.252;2023-02-04T12:09:49;94319.19;;;4.33;100.00
20620;BME280;10469;42.720;23.252;2023-02-04T12:12:22;94319.09;;;4.53;100.00
20620;BME280;10469;42.720;23.252;2023-02-04T12:14:56;94311.66;;;4.68;100.00
20620;BME280;10469;42.720;23.252;2023-02-04T12:17:22;94304.78;;;4.86;100.00
20620;BME280;10469;42.720;23.252;2023-02-04T12:19:47;94300.34;;;4.80;100.00
20620;BME280;10469;42.720;23.252;2023-02-04T12:22:13;94310.63;;;4.69;100.00
20620;BME280;10469;42.720;23.252;2023-02-04T12:24:41;94302.00;;;4.42;100.00
20620;BME280;10469;42.720;23.252;2023-02-04T12:27:08;94303.94;;;4.60;100.00
20620;BME280;10469;42.720;23.252;2023-02-04T12:29:33;94290.00;;;4.65;100.00
20620;BME280;10469;42.720;23.252;2023-02-04T12:31:58;94286.16;;;4.61;100.00
20620;BME280;10469;42.720;23.252;2023-02-04T12:34:24;94289.03;;;4.59;100.00
20620;BME280;10469;42.720;23.252;2023-02-04T12:36:49;94280.03;;;4.60;100.00
20620;BME280;10469;42.720;23.252;2023-02-04T12:39:15;94286.09;;;4.99;100.00
20620;BME280;10469;42.720;23.252;2023-02-04T12:41:40;94279.66;;;4.57;100.00
20620;BME280;10469;42.720;23.252;2023-02-04T12:44:06;94288.63;;;4.87;100.00
20620;BME280;10469;42.720;23.252;2023-02-04T12:46:31;94287.03;;;5.11;100.00
20620;BME280;10469;42.720;23.252;2023-02-04T12:48:56;94290.75;;;5.03;100.00
20620;BME280;10469;42.720;23.252;2023-02-04T12:51:22;94285.84;;;5.07;100.00
20620;BME280;10469;42.720;23.252;2023-02-04T12:53:48;94290.44;;;4.93;100.00
20620;BME280;10469;42.720;23.252;2023-02-04T12:56:14;94280.94;;;5.04;100.00
20620;BME280;10469;42.720;23.252;2023-02-04T12:58:40;94293.28;;;4.92;100.00
20620;BME280;10469;42.720;23.252;2023-02-04T13:01:06;94282.91;;;4.90;100.00
20620;BME280;10469;42.720;23.252;2023-02-04T13:03:31;94293.63;;;4.77;100.00
20620;BME280;10469;42.720;23.252;2023-02-04T13:05:57;94283.53;;;4.86;100.00
20620;BME280;10469;42.720;23.252;2023-02-04T13:08:23;94288.78;;;4.67;100.00
20620;BME280;10469;42.720;23.252;2023-02-04T13:10:49;94307.88;;;4.51;100.00
20620;BME280;10469;42.720;23.252;2023-02-04T13:13:17;94297.59;;;4.23;100.00
20620;BME280;10469;42.720;23.252;2023-02-04T13:15:43;94295.63;;;4.50;100.00
20620;BME280;10469;42.720;23.252;2023-02-04T13:18:09;94296.53;;;4.37;100.00
20620;BME280;10469;42.720;23.252;2023-02-04T13:20:34;94293.72;;;4.25;100.00
20620;BME280;10469;42.720;23.252;2023-02-04T13:22:59;94296.66;;;4.04;100.00